Terminal Aerodrome Forecast
Issued by NWS

Home | Current Version | Previous Version | Text Only | Print | Product List | Glossary On
Versions: 1 2 3 4 5 6 7 8 9 10 11 12 13 14 15 16 17 18
000
FTUS43 KILX 172300 RRA
TAFCMI
TAF
KCMI 172341Z 1800/1824 VRB06KT P6SM BKN100
     FM180600 34004KT P6SM BKN080
     FM181000 35004KT P6SM BKN120
     FM181400 VRB05KT P6SM SKC=

USA.gov is the U.S. government's official web portal to all federal, state and local government web resources and services.